createdAt,value
2019-04-21T00:00:37.559Z,0.00
2019-04-21T00:01:47.428Z,0.00
2019-04-21T00:02:39.718Z,0.00
2019-04-21T00:03:43.053Z,0.00
2019-04-21T00:04:50.769Z,0.00
2019-04-21T00:05:58.554Z,0.00
2019-04-21T00:07:01.226Z,0.00
2019-04-21T00:08:01.192Z,0.00
2019-04-21T00:08:56.474Z,0.00
2019-04-21T00:10:02.124Z,0.00
2019-04-21T00:10:59.390Z,0.00
2019-04-21T00:11:55.282Z,0.00
2019-04-21T00:12:53.371Z,0.00
2019-04-21T00:13:46.747Z,0.00
2019-04-21T00:14:47.169Z,0.00
2019-04-21T00:15:45.768Z,0.00
2019-04-21T00:16:44.128Z,0.00
2019-04-21T00:17:36.921Z,0.00
2019-04-21T00:18:46.871Z,0.00
2019-04-21T00:19:38.994Z,0.00
2019-04-21T00:20:44.189Z,0.00
2019-04-21T00:21:44.767Z,0.00
2019-04-21T00:22:49.066Z,0.00
2019-04-21T00:23:53.552Z,0.00
2019-04-21T00:24:51.952Z,0.00
2019-04-21T00:25:49.873Z,0.00
2019-04-21T00:26:55.805Z,0.00
2019-04-21T00:27:51.703Z,0.00
2019-04-21T00:28:59.465Z,0.00
2019-04-21T00:29:52.086Z,0.00
2019-04-21T00:30:57.925Z,0.00
2019-04-21T00:31:52.861Z,0.00
2019-04-21T00:32:45.043Z,0.00
2019-04-21T00:33:39.844Z,0.00
2019-04-21T00:34:36.330Z,0.00
2019-04-21T00:35:45.082Z,0.00
2019-04-21T00:36:48.895Z,0.00
2019-04-21T00:37:53.366Z,0.00
2019-04-21T00:39:09.620Z,0.00
2019-04-21T00:40:01.880Z,0.00
2019-04-21T00:41:00.564Z,0.00
2019-04-21T00:41:53.730Z,0.00
2019-04-21T00:42:55.634Z,0.00
2019-04-21T00:43:48.916Z,0.00
2019-04-21T00:44:52.025Z,0.00
2019-04-21T00:45:50.885Z,0.00
2019-04-21T00:46:51.608Z,0.00
2019-04-21T00:48:00.716Z,0.00
2019-04-21T00:48:57.410Z,0.00
2019-04-21T00:49:57.829Z,0.00
2019-04-21T00:51:12.621Z,0.00
2019-04-21T00:52:07.233Z,0.00
2019-04-21T00:54:04.000Z,0.00
2019-04-21T00:55:07.663Z,0.00
2019-04-21T00:55:59.416Z,0.00
2019-04-21T00:57:02.670Z,0.00
2019-04-21T00:58:59.921Z,0.00
2019-04-21T01:00:00.840Z,0.00
2019-04-21T01:01:00.490Z,0.00
2019-04-21T01:01:56.625Z,0.00
2019-04-21T01:02:59.402Z,0.00
2019-04-21T01:03:57.813Z,0.00
2019-04-21T01:04:59.799Z,0.00
2019-04-21T01:05:57.292Z,0.00
2019-04-21T01:06:56.077Z,0.00
2019-04-21T01:07:50.360Z,0.00
2019-04-21T01:08:55.626Z,0.00
2019-04-21T01:09:48.612Z,0.00
2019-04-21T01:10:48.917Z,0.00
2019-04-21T01:11:55.991Z,0.00
2019-04-21T01:12:54.726Z,0.00
2019-04-21T01:14:00.652Z,0.00
2019-04-21T01:15:04.139Z,0.00
2019-04-21T01:16:14.745Z,0.00
2019-04-21T01:17:00.373Z,0.00
2019-04-21T01:18:01.483Z,0.00
2019-04-21T01:18:55.334Z,0.00
2019-04-21T01:19:50.802Z,0.00
2019-04-21T01:20:34.176Z,0.00
2019-04-21T01:21:34.168Z,0.00
2019-04-21T01:22:34.114Z,0.00
2019-04-21T01:23:34.077Z,0.00
2019-04-21T01:24:39.568Z,0.00
2019-04-21T01:25:41.155Z,0.00
2019-04-21T01:26:49.042Z,0.00
2019-04-21T01:27:53.749Z,0.00
2019-04-21T01:28:51.137Z,0.00
2019-04-21T01:29:53.116Z,0.00
2019-04-21T01:30:55.248Z,0.00
2019-04-21T01:31:48.070Z,0.00
2019-04-21T01:32:55.774Z,0.00
2019-04-21T01:33:56.176Z,0.00
2019-04-21T01:35:55.272Z,0.00
2019-04-21T01:36:51.407Z,0.00
2019-04-21T01:37:58.849Z,0.00
2019-04-21T01:38:59.145Z,0.00
2019-04-21T01:39:58.496Z,0.00
2019-04-21T01:40:53.102Z,0.00
2019-04-21T01:41:58.787Z,0.00
2019-04-21T01:43:00.471Z,0.00
2019-04-21T01:44:53.207Z,0.00
2019-04-21T01:45:48.754Z,0.00
2019-04-21T01:46:49.326Z,0.00
2019-04-21T01:47:50.916Z,0.00
2019-04-21T01:48:49.475Z,0.00
2019-04-21T01:49:43.254Z,0.00
2019-04-21T01:50:51.175Z,0.00
2019-04-21T01:52:02.834Z,0.00
2019-04-21T01:52:56.447Z,0.00
2019-04-21T01:53:59.556Z,0.00
2019-04-21T01:54:55.228Z,0.00
2019-04-21T01:55:54.214Z,0.00
2019-04-21T01:56:51.000Z,0.00
2019-04-21T01:57:51.254Z,0.00
2019-04-21T01:58:44.356Z,0.00
2019-04-21T01:59:48.908Z,0.00
2019-04-21T02:00:50.142Z,0.00
2019-04-21T02:01:59.304Z,0.00
2019-04-21T02:02:59.556Z,0.00
2019-04-21T02:05:00.699Z,0.00
2019-04-21T02:06:00.025Z,0.00
2019-04-21T02:06:57.354Z,0.00
2019-04-21T02:07:49.103Z,0.00
2019-04-21T02:08:48.809Z,0.00
2019-04-21T02:09:59.338Z,0.00
2019-04-21T02:10:54.895Z,0.00
2019-04-21T02:11:56.760Z,0.00
2019-04-21T02:12:50.698Z,0.00
2019-04-21T02:13:58.945Z,0.00
2019-04-21T02:14:58.226Z,0.00
2019-04-21T02:15:55.513Z,0.00
2019-04-21T02:16:56.675Z,0.00
2019-04-21T02:17:54.116Z,0.00
2019-04-21T02:18:49.445Z,0.00
2019-04-21T02:19:49.158Z,0.00
2019-04-21T02:20:41.224Z,0.00
2019-04-21T02:21:49.183Z,0.00
2019-04-21T02:23:22.322Z,0.00
2019-04-21T02:23:58.931Z,0.00
2019-04-21T02:24:56.826Z,0.00
2019-04-21T02:25:52.622Z,0.00
2019-04-21T02:26:55.062Z,0.00
2019-04-21T02:28:01.235Z,0.00
2019-04-21T02:28:56.040Z,0.00
2019-04-21T02:29:55.453Z,0.00
2019-04-21T02:31:14.187Z,0.00
2019-04-21T02:32:14.818Z,0.00
2019-04-21T02:35:24.601Z,0.00
2019-04-21T02:38:11.387Z,0.00
2019-04-21T02:39:06.155Z,0.00
2019-04-21T02:40:04.387Z,0.00
2019-04-21T02:40:57.271Z,0.00
2019-04-21T02:43:07.372Z,0.00
2019-04-21T02:44:08.213Z,0.00
2019-04-21T02:45:03.951Z,0.00
2019-04-21T02:47:05.152Z,0.00
2019-04-21T02:48:04.490Z,0.00
2019-04-21T02:49:11.206Z,0.00
2019-04-21T02:50:11.896Z,0.00
2019-04-21T02:50:57.727Z,0.00
2019-04-21T02:52:07.247Z,0.00
2019-04-21T02:53:06.993Z,0.00
2019-04-21T02:56:05.985Z,0.00
2019-04-21T02:57:19.092Z,0.00
2019-04-21T02:59:03.097Z,0.00
2019-04-21T03:00:06.795Z,0.00
2019-04-21T03:01:07.512Z,0.00
2019-04-21T03:02:11.089Z,0.00
2019-04-21T03:04:00.661Z,0.00
2019-04-21T03:05:01.857Z,0.00
2019-04-21T03:05:58.677Z,0.00
2019-04-21T03:07:09.366Z,0.00
2019-04-21T03:09:12.885Z,0.00
2019-04-21T03:10:04.834Z,0.00
2019-04-21T03:13:05.997Z,0.00
2019-04-21T03:14:11.061Z,0.00
2019-04-21T03:15:07.364Z,0.00
2019-04-21T03:16:09.818Z,0.00
2019-04-21T03:16:55.682Z,0.00
2019-04-21T03:18:06.462Z,0.00
2019-04-21T03:19:06.661Z,0.00
2019-04-21T03:21:10.826Z,4.00
2019-04-21T03:22:05.143Z,4.00
2019-04-21T03:23:07.788Z,0.00
2019-04-21T03:24:01.258Z,0.00
2019-04-21T03:25:23.479Z,4.00
2019-04-21T03:27:09.597Z,4.00
2019-04-21T03:29:05.870Z,4.00
2019-04-21T03:29:59.189Z,4.00
2019-04-21T03:31:31.246Z,8.00
2019-04-21T03:32:39.906Z,8.00
2019-04-21T03:33:54.500Z,12.00
2019-04-21T03:35:34.499Z,16.00
2019-04-21T03:38:55.396Z,28.00
2019-04-21T03:40:06.873Z,32.00
2019-04-21T03:40:57.820Z,40.00
2019-04-21T03:42:11.398Z,40.00
2019-04-21T03:43:10.190Z,52.00
2019-04-21T03:43:59.304Z,60.00
2019-04-21T03:46:21.116Z,76.00
2019-04-21T03:47:17.149Z,88.00
2019-04-21T03:48:05.310Z,100.00
2019-04-21T03:49:04.873Z,112.00
2019-04-21T03:50:04.622Z,128.00
2019-04-21T03:50:59.495Z,144.00
2019-04-21T03:52:03.543Z,160.00
2019-04-21T03:54:00.282Z,200.00
2019-04-21T03:55:25.226Z,216.00
2019-04-21T03:56:01.242Z,240.00
2019-04-21T03:57:10.816Z,264.00
2019-04-21T04:00:08.990Z,348.00
2019-04-21T04:01:05.902Z,376.00
2019-04-21T04:02:08.382Z,408.00
2019-04-21T04:03:07.626Z,440.00
2019-04-21T04:04:11.569Z,476.00
2019-04-21T04:05:03.380Z,512.00
2019-04-21T04:08:17.236Z,628.00
2019-04-21T04:10:06.314Z,708.00
2019-04-21T04:11:12.024Z,752.00
2019-04-21T04:11:56.675Z,796.00
2019-04-21T04:12:57.111Z,840.00
2019-04-21T04:15:07.187Z,932.00
2019-04-21T04:16:06.967Z,980.00
2019-04-21T04:17:04.658Z,1032.00
2019-04-21T04:17:57.978Z,1084.00
2019-04-21T04:19:56.147Z,1196.00
2019-04-21T04:21:08.967Z,1240.00
2019-04-21T04:22:09.099Z,1292.00
2019-04-21T04:24:29.921Z,1424.00
2019-04-21T04:25:11.501Z,1496.00
2019-04-21T04:26:02.442Z,1584.00
2019-04-21T04:27:07.991Z,1688.00
2019-04-21T04:29:04.335Z,1848.00
2019-04-21T04:29:59.084Z,1908.00
2019-04-21T04:32:57.329Z,2012.00
2019-04-21T04:34:04.984Z,2040.00
2019-04-21T04:35:03.366Z,2060.00
2019-04-21T04:37:05.952Z,2120.00
2019-04-21T04:37:57.312Z,2156.00
2019-04-21T04:39:16.308Z,2196.00
2019-04-21T04:40:05.713Z,2252.00
2019-04-21T04:42:08.029Z,2368.00
2019-04-21T04:42:55.903Z,2452.00
2019-04-21T04:44:06.095Z,2540.00
2019-04-21T04:45:05.824Z,2612.00
2019-04-21T04:45:56.387Z,2664.00
2019-04-21T04:47:05.476Z,2676.00
2019-04-21T04:47:59.066Z,2704.00
2019-04-21T04:49:08.033Z,2748.00
2019-04-21T04:49:55.030Z,2808.00
2019-04-21T04:53:01.229Z,2744.00
2019-04-21T04:54:17.137Z,2644.00
2019-04-21T04:55:54.761Z,2668.00
2019-04-21T04:57:59.270Z,2732.00
2019-04-21T05:00:13.600Z,2788.00
2019-04-21T05:02:15.170Z,2844.00
2019-04-21T05:02:58.817Z,2872.00
2019-04-21T05:03:56.910Z,2900.00
2019-04-21T05:05:09.203Z,2916.00
2019-04-21T05:06:10.570Z,2916.00
2019-04-21T05:07:00.113Z,2940.00
2019-04-21T05:07:57.299Z,2964.00
2019-04-21T05:09:59.644Z,3016.00
2019-04-21T05:11:08.022Z,3040.00
2019-04-21T05:12:53.215Z,3088.00
2019-04-21T05:14:02.663Z,3108.00
2019-04-21T05:16:02.529Z,3152.00
2019-04-21T05:16:55.413Z,3172.00
2019-04-21T05:17:50.464Z,3188.00
2019-04-21T05:19:04.530Z,3212.00
2019-04-21T05:21:04.047Z,3252.00
2019-04-21T05:22:11.061Z,3268.00
2019-04-21T05:22:53.248Z,3288.00
2019-04-21T05:23:48.500Z,3312.00
2019-04-21T05:24:44.022Z,3328.00
2019-04-21T05:25:43.258Z,3344.00
2019-04-21T05:26:46.237Z,3360.00
2019-04-21T05:27:42.970Z,3380.00
2019-04-21T05:28:42.009Z,3396.00
2019-04-21T05:29:53.532Z,3412.00
2019-04-21T05:30:52.022Z,3428.00
2019-04-21T05:31:50.657Z,3448.00
2019-04-21T05:32:48.761Z,3460.00
2019-04-21T05:33:46.510Z,3480.00
2019-04-21T05:34:44.244Z,3496.00
2019-04-21T05:35:45.216Z,3512.00
2019-04-21T05:36:45.976Z,3528.00
2019-04-21T05:37:43.666Z,3544.00
2019-04-21T05:38:43.671Z,3560.00
2019-04-21T05:39:43.557Z,3572.00
2019-04-21T05:40:38.931Z,3584.00
2019-04-21T05:41:34.832Z,3600.00
2019-04-21T05:42:44.190Z,3612.00
2019-04-21T05:43:48.437Z,3628.00
2019-04-21T05:44:58.138Z,3640.00
2019-04-21T05:45:50.107Z,3652.00
2019-04-21T05:46:49.214Z,3664.00
2019-04-21T05:47:46.354Z,3676.00
2019-04-21T05:48:45.492Z,3688.00
2019-04-21T05:49:45.213Z,3700.00
2019-04-21T05:50:44.118Z,3716.00
2019-04-21T05:51:41.188Z,3728.00
2019-04-21T05:52:41.825Z,3736.00
2019-04-21T05:53:49.270Z,3748.00
2019-04-21T05:54:52.996Z,3756.00
2019-04-21T05:55:51.865Z,3768.00
2019-04-21T05:56:48.698Z,3784.00
2019-04-21T05:57:47.837Z,3792.00
2019-04-21T05:58:54.156Z,3808.00
2019-04-21T05:59:50.316Z,3812.00
2019-04-21T06:01:46.845Z,3840.00
2019-04-21T06:02:49.558Z,3848.00
2019-04-21T06:03:53.057Z,3860.00
2019-04-21T06:05:18.423Z,3868.00
2019-04-21T06:06:00.765Z,3880.00
2019-04-21T06:06:48.037Z,3888.00
2019-04-21T06:07:46.121Z,3904.00
2019-04-21T06:08:42.269Z,3916.00
2019-04-21T06:09:52.546Z,3924.00
2019-04-21T06:10:52.979Z,3940.00
2019-04-21T06:11:45.488Z,3948.00
2019-04-21T06:12:57.711Z,3956.00
2019-04-21T06:14:50.824Z,3976.00
2019-04-21T06:15:54.862Z,3988.00
2019-04-21T06:16:48.200Z,3992.00
2019-04-21T06:17:55.051Z,4004.00
2019-04-21T06:18:53.246Z,4012.00
2019-04-21T06:19:49.366Z,4024.00
2019-04-21T06:20:46.787Z,4032.00
2019-04-21T06:21:44.974Z,4044.00
2019-04-21T06:22:53.340Z,4052.00
2019-04-21T06:23:45.610Z,4064.00
2019-04-21T06:25:15.236Z,4072.00
2019-04-21T06:27:44.346Z,4092.00
2019-04-21T06:28:50.469Z,4096.00
2019-04-21T06:29:50.189Z,4108.00
2019-04-21T06:32:49.133Z,4124.00
2019-04-21T06:35:11.200Z,4148.00
2019-04-21T06:35:58.776Z,4152.00
2019-04-21T06:36:49.548Z,4156.00
2019-04-21T06:37:55.000Z,4164.00
2019-04-21T06:38:58.306Z,4168.00
2019-04-21T06:40:03.293Z,4180.00
2019-04-21T06:40:52.668Z,4188.00
2019-04-21T06:41:46.578Z,4192.00
2019-04-21T06:42:51.355Z,4200.00
2019-04-21T06:44:54.538Z,4216.00
2019-04-21T06:45:54.387Z,4220.00
2019-04-21T06:46:45.704Z,4224.00
2019-04-21T06:47:51.191Z,4228.00
2019-04-21T06:48:53.841Z,4232.00
2019-04-21T06:49:43.866Z,4240.00
2019-04-21T06:50:52.601Z,4244.00
2019-04-21T06:51:42.950Z,4244.00
2019-04-21T06:53:55.421Z,4252.00
2019-04-21T06:54:53.291Z,4256.00
2019-04-21T06:55:49.724Z,4256.00
2019-04-21T06:56:47.955Z,4256.00
2019-04-21T06:57:45.674Z,4260.00
2019-04-21T06:58:42.811Z,4268.00
2019-04-21T06:59:43.625Z,4264.00
2019-04-21T07:00:41.353Z,4272.00
2019-04-21T07:02:18.362Z,4272.00
2019-04-21T07:03:08.361Z,4272.00
2019-04-21T07:03:49.384Z,4276.00
2019-04-21T07:04:50.147Z,4268.00
2019-04-21T07:05:51.403Z,4280.00
2019-04-21T07:08:05.764Z,4288.00
2019-04-21T07:08:52.918Z,4292.00
2019-04-21T07:09:52.755Z,4296.00
2019-04-21T07:10:44.421Z,4304.00
2019-04-21T07:11:43.872Z,4308.00
2019-04-21T07:12:44.904Z,4312.00
2019-04-21T07:13:50.893Z,4316.00
2019-04-21T07:14:42.101Z,4320.00
2019-04-21T07:15:43.524Z,4324.00
2019-04-21T07:16:51.454Z,4328.00
2019-04-21T07:17:46.969Z,4332.00
2019-04-21T07:18:54.073Z,4336.00
2019-04-21T07:19:48.422Z,4336.00
2019-04-21T07:20:49.004Z,4336.00
2019-04-21T07:21:45.489Z,4340.00
2019-04-21T07:22:48.095Z,4340.00
2019-04-21T07:23:47.287Z,4340.00
2019-04-21T07:24:43.490Z,4340.00
2019-04-21T07:25:48.274Z,4352.00
2019-04-21T07:26:45.973Z,4348.00
2019-04-21T07:27:50.718Z,4356.00
2019-04-21T07:28:47.943Z,4356.00
2019-04-21T07:29:50.671Z,4364.00
2019-04-21T07:30:43.942Z,4364.00
2019-04-21T07:32:49.460Z,4376.00
2019-04-21T07:33:53.423Z,4376.00
2019-04-21T07:34:49.853Z,4376.00
2019-04-21T07:35:43.210Z,4384.00
2019-04-21T07:36:52.634Z,4384.00
2019-04-21T07:37:41.292Z,4384.00
2019-04-21T07:38:39.543Z,4384.00
2019-04-21T07:39:38.920Z,4384.00
2019-04-21T07:40:33.390Z,4392.00
2019-04-21T07:41:39.794Z,4392.00
2019-04-21T07:42:38.032Z,4396.00
2019-04-21T07:43:39.890Z,4404.00
2019-04-21T07:44:36.537Z,4400.00
2019-04-21T07:45:36.718Z,4400.00
2019-04-21T07:46:33.678Z,4400.00
2019-04-21T07:47:44.445Z,4404.00
2019-04-21T07:48:44.833Z,4408.00
2019-04-21T07:49:49.512Z,4412.00
2019-04-21T07:50:38.935Z,4412.00
2019-04-21T07:51:49.044Z,4412.00
2019-04-21T07:52:48.505Z,4416.00
2019-04-21T07:53:50.564Z,4416.00
2019-04-21T07:54:44.568Z,4416.00
2019-04-21T07:56:28.805Z,4424.00
2019-04-21T07:57:38.679Z,4424.00
2019-04-21T07:58:45.539Z,4432.00
2019-04-21T07:59:48.560Z,4436.00
2019-04-21T08:01:45.352Z,4432.00
2019-04-21T08:02:43.754Z,4436.00
2019-04-21T08:03:46.128Z,4432.00
2019-04-21T08:04:53.979Z,4436.00
2019-04-21T08:05:47.195Z,4440.00
2019-04-21T08:06:40.588Z,4440.00
2019-04-21T08:08:41.060Z,4448.00
2019-04-21T08:09:42.682Z,4444.00
2019-04-21T08:10:37.793Z,4444.00
2019-04-21T08:11:36.328Z,4436.00
2019-04-21T08:12:36.323Z,4444.00
2019-04-21T08:13:44.936Z,4444.00
2019-04-21T08:14:43.674Z,4444.00
2019-04-21T08:16:06.191Z,4448.00
2019-04-21T08:16:49.958Z,4448.00
2019-04-21T08:17:41.511Z,4444.00
2019-04-21T08:18:39.373Z,4444.00
2019-04-21T08:19:35.213Z,4440.00
2019-04-21T08:20:35.262Z,4444.00
2019-04-21T08:21:40.474Z,4448.00
2019-04-21T08:22:46.342Z,4456.00
2019-04-21T08:23:41.579Z,4456.00
2019-04-21T08:24:42.377Z,4464.00
2019-04-21T08:25:45.844Z,4460.00
2019-04-21T08:26:44.964Z,4472.00
2019-04-21T08:27:51.263Z,4472.00
2019-04-21T08:30:55.444Z,4472.00
2019-04-21T08:31:50.001Z,4484.00
2019-04-21T08:32:52.791Z,4480.00
2019-04-21T08:33:46.773Z,4480.00
2019-04-21T08:34:52.600Z,4484.00
2019-04-21T08:36:40.326Z,4488.00
2019-04-21T08:37:37.047Z,4492.00
2019-04-21T08:38:41.732Z,4492.00
2019-04-21T08:39:49.700Z,4496.00
2019-04-21T08:40:59.016Z,4500.00
2019-04-21T08:41:40.898Z,4500.00
2019-04-21T08:42:39.352Z,4496.00
2019-04-21T08:43:42.592Z,4500.00
2019-04-21T08:44:40.278Z,4500.00
2019-04-21T08:45:41.876Z,4496.00
2019-04-21T08:46:38.921Z,4496.00
2019-04-21T08:47:44.174Z,4500.00
2019-04-21T08:48:43.889Z,4500.00
2019-04-21T08:49:41.288Z,4496.00
2019-04-21T08:50:37.668Z,4496.00
2019-04-21T08:51:39.572Z,4496.00
2019-04-21T08:52:49.206Z,4500.00
2019-04-21T08:53:44.185Z,4500.00
2019-04-21T08:54:40.923Z,4500.00
2019-04-21T08:55:42.890Z,4504.00
2019-04-21T08:56:43.505Z,4512.00
2019-04-21T08:57:52.616Z,4524.00
2019-04-21T08:58:42.887Z,4520.00
2019-04-21T08:59:36.370Z,4520.00
2019-04-21T09:00:45.342Z,4516.00
2019-04-21T09:01:45.254Z,4508.00
2019-04-21T09:02:42.593Z,4508.00
2019-04-21T09:03:43.394Z,4508.00
2019-04-21T09:04:35.166Z,4512.00
2019-04-21T09:05:35.605Z,4520.00
2019-04-21T09:06:54.289Z,4520.00
2019-04-21T09:07:41.337Z,4520.00
2019-04-21T09:08:39.638Z,4520.00
2019-04-21T09:09:41.579Z,4532.00
2019-04-21T09:10:42.231Z,4536.00
2019-04-21T09:11:37.613Z,4528.00
2019-04-21T09:12:34.613Z,4516.00
2019-04-21T09:13:37.072Z,4500.00
2019-04-21T09:14:36.636Z,4492.00
2019-04-21T09:15:35.069Z,4492.00
2019-04-21T09:16:39.668Z,4496.00
2019-04-21T09:17:30.463Z,4492.00
2019-04-21T09:18:36.559Z,4488.00
2019-04-21T09:19:53.403Z,4492.00
2019-04-21T09:21:37.436Z,4512.00
2019-04-21T09:22:35.711Z,4516.00
2019-04-21T09:23:39.222Z,4516.00
2019-04-21T09:24:42.795Z,4512.00
2019-04-21T09:25:40.758Z,4508.00
2019-04-21T09:26:34.052Z,4524.00
2019-04-21T09:27:39.014Z,4528.00
2019-04-21T09:28:36.720Z,4540.00
2019-04-21T09:29:28.636Z,4540.00
2019-04-21T09:30:19.836Z,4532.00
2019-04-21T09:31:24.097Z,4524.00
2019-04-21T09:32:23.866Z,4520.00
2019-04-21T09:33:20.831Z,4512.00
2019-04-21T09:34:24.879Z,4524.00
2019-04-21T09:35:20.450Z,4532.00
2019-04-21T09:36:22.115Z,4536.00
2019-04-21T09:37:28.646Z,4532.00
2019-04-21T09:38:27.680Z,4524.00
2019-04-21T09:39:22.230Z,4520.00
2019-04-21T09:40:34.010Z,4516.00
2019-04-21T09:41:22.148Z,4516.00
2019-04-21T09:42:21.204Z,4516.00
2019-04-21T09:43:27.973Z,4516.00
2019-04-21T09:44:25.981Z,4528.00
2019-04-21T09:45:22.387Z,4528.00
2019-04-21T09:46:18.668Z,4532.00
2019-04-21T09:47:22.907Z,4544.00
2019-04-21T09:48:21.082Z,4548.00
2019-04-21T09:49:23.528Z,4552.00
2019-04-21T09:50:19.750Z,4552.00
2019-04-21T09:51:19.976Z,4548.00
2019-04-21T09:52:21.925Z,4560.00
2019-04-21T09:53:26.884Z,4556.00
2019-04-21T09:54:24.863Z,4556.00
2019-04-21T09:55:22.552Z,4552.00
2019-04-21T09:56:30.258Z,4544.00
2019-04-21T09:57:27.398Z,4536.00
2019-04-21T09:58:27.349Z,4532.00
2019-04-21T09:59:26.309Z,4516.00
2019-04-21T10:00:21.180Z,4516.00
2019-04-21T10:01:26.814Z,4508.00
2019-04-21T10:02:31.039Z,4496.00
2019-04-21T10:03:19.762Z,4488.00
2019-04-21T10:04:18.955Z,4484.00
2019-04-21T10:05:19.114Z,4488.00
2019-04-21T10:06:19.550Z,4484.00
2019-04-21T10:07:26.493Z,4480.00
2019-04-21T10:08:18.836Z,4472.00
2019-04-21T10:09:20.189Z,4468.00
2019-04-21T10:10:19.149Z,4464.00
2019-04-21T10:11:20.527Z,4472.00
2019-04-21T10:12:18.010Z,4484.00
2019-04-21T10:13:18.004Z,4500.00
2019-04-21T10:14:17.980Z,4504.00
2019-04-21T10:15:19.113Z,4508.00
2019-04-21T10:16:17.909Z,4512.00
2019-04-21T10:17:17.889Z,4524.00
2019-04-21T10:18:17.860Z,4532.00
2019-04-21T10:19:17.861Z,4536.00
2019-04-21T10:20:17.809Z,4544.00
2019-04-21T10:21:19.790Z,4544.00
2019-04-21T10:22:19.026Z,4548.00
2019-04-21T10:23:17.882Z,4552.00
2019-04-21T10:24:18.029Z,4552.00
2019-04-21T10:25:18.661Z,4556.00
2019-04-21T10:26:18.736Z,4560.00
2019-04-21T10:27:18.904Z,4564.00
2019-04-21T10:28:18.974Z,4572.00
2019-04-21T10:29:25.463Z,4568.00
2019-04-21T10:30:17.580Z,4568.00
2019-04-21T10:31:18.522Z,4568.00
2019-04-21T10:32:21.304Z,4572.00
2019-04-21T10:33:18.547Z,4580.00
2019-04-21T10:34:17.458Z,4580.00
2019-04-21T10:35:20.417Z,4588.00
2019-04-21T10:36:17.410Z,4600.00
2019-04-21T10:37:18.672Z,4612.00
2019-04-21T10:38:29.302Z,4616.00
2019-04-21T10:39:17.814Z,4628.00
2019-04-21T10:40:17.996Z,4636.00
2019-04-21T10:41:17.314Z,4644.00
2019-04-21T10:42:17.394Z,4648.00
2019-04-21T10:43:21.663Z,4648.00
2019-04-21T10:44:17.235Z,4648.00
2019-04-21T10:45:17.223Z,4636.00
2019-04-21T10:46:17.161Z,4632.00
2019-04-21T10:47:18.348Z,4624.00
2019-04-21T10:48:17.111Z,4628.00
2019-04-21T10:49:17.160Z,4628.00
2019-04-21T10:50:18.273Z,4624.00
2019-04-21T10:51:17.223Z,4632.00
2019-04-21T10:52:17.155Z,4632.00
2019-04-21T10:53:17.019Z,4632.00
2019-04-21T10:54:17.896Z,4648.00
2019-04-21T10:55:36.362Z,4652.00
2019-04-21T10:56:25.206Z,4660.00
2019-04-21T10:57:16.892Z,4660.00
2019-04-21T10:58:18.245Z,4668.00
2019-04-21T10:59:18.275Z,4672.00
2019-04-21T11:00:17.551Z,4676.00
2019-04-21T11:01:16.896Z,4672.00
2019-04-21T11:02:17.081Z,4672.00
2019-04-21T11:03:17.128Z,4664.00
2019-04-21T11:04:22.791Z,4664.00
2019-04-21T11:05:16.813Z,4664.00
2019-04-21T11:06:16.932Z,4676.00
2019-04-21T11:07:19.623Z,4680.00
2019-04-21T11:08:24.567Z,4688.00
2019-04-21T11:09:17.801Z,4696.00
2019-04-21T11:10:18.171Z,4700.00
2019-04-21T11:11:16.551Z,4708.00
2019-04-21T11:12:17.541Z,4696.00
2019-04-21T11:13:16.634Z,4700.00
2019-04-21T11:14:17.590Z,4700.00
2019-04-21T11:15:17.121Z,4704.00
2019-04-21T11:16:17.256Z,4704.00
2019-04-21T11:17:16.524Z,4708.00
2019-04-21T11:18:17.680Z,4708.00
2019-04-21T11:19:16.357Z,4712.00
2019-04-21T11:20:17.244Z,4708.00
2019-04-21T11:21:16.642Z,4716.00
2019-04-21T11:22:16.776Z,4712.00
2019-04-21T11:23:19.115Z,4720.00
2019-04-21T11:24:17.825Z,4720.00
2019-04-21T11:25:16.237Z,4716.00
2019-04-21T11:26:16.188Z,4716.00
2019-04-21T11:27:17.008Z,4716.00
2019-04-21T11:28:16.693Z,4716.00
2019-04-21T11:29:17.052Z,4720.00
2019-04-21T11:30:16.121Z,4712.00
2019-04-21T11:31:16.086Z,4708.00
2019-04-21T11:32:16.845Z,4712.00
2019-04-21T11:33:17.139Z,4712.00
2019-04-21T11:34:15.988Z,4712.00
2019-04-21T11:35:17.063Z,4712.00
2019-04-21T11:36:17.280Z,4716.00
2019-04-21T11:37:16.441Z,4724.00
2019-04-21T11:38:20.412Z,4724.00
2019-04-21T11:39:24.692Z,4724.00
2019-04-21T11:40:18.123Z,4724.00
2019-04-21T11:41:16.096Z,4716.00
2019-04-21T11:42:15.794Z,4712.00
2019-04-21T11:43:15.808Z,4708.00
2019-04-21T11:44:16.295Z,4704.00
2019-04-21T11:45:16.536Z,4708.00
2019-04-21T11:46:16.261Z,4712.00
2019-04-21T11:47:16.364Z,4712.00
2019-04-21T11:48:16.615Z,4716.00
2019-04-21T11:49:15.896Z,4712.00
2019-04-21T11:50:16.986Z,4700.00
2019-04-21T11:51:15.600Z,4696.00
2019-04-21T11:52:16.551Z,4688.00
2019-04-21T11:53:16.768Z,4692.00
2019-04-21T11:54:15.501Z,4688.00
2019-04-21T11:55:16.598Z,4688.00
2019-04-21T11:56:16.721Z,4684.00
2019-04-21T11:57:22.700Z,4684.00
2019-04-21T11:58:15.996Z,4684.00
2019-04-21T11:59:15.593Z,4680.00
2019-04-21T12:00:15.741Z,4692.00
2019-04-21T12:01:15.861Z,4688.00
2019-04-21T12:02:15.310Z,4680.00
2019-04-21T12:03:16.949Z,4672.00
2019-04-21T12:04:16.101Z,4672.00
2019-04-21T12:05:15.294Z,4672.00
2019-04-21T12:06:15.507Z,4668.00
2019-04-21T12:07:15.454Z,4672.00
2019-04-21T12:08:23.345Z,4672.00
2019-04-21T12:09:15.139Z,4676.00
2019-04-21T12:10:15.512Z,4672.00
2019-04-21T12:11:15.853Z,4676.00
2019-04-21T12:12:15.158Z,4672.00
2019-04-21T12:13:16.167Z,4676.00
2019-04-21T12:14:16.177Z,4676.00
2019-04-21T12:15:15.035Z,4680.00
2019-04-21T12:16:15.147Z,4680.00
2019-04-21T12:17:16.060Z,4680.00
2019-04-21T12:18:15.515Z,4684.00
2019-04-21T12:19:14.903Z,4688.00
2019-04-21T12:20:14.930Z,4688.00
2019-04-21T12:21:15.718Z,4692.00
2019-04-21T12:22:21.263Z,4696.00
2019-04-21T12:23:14.841Z,4692.00
2019-04-21T12:24:15.223Z,4692.00
2019-04-21T12:25:15.532Z,4692.00
2019-04-21T12:26:15.910Z,4692.00
2019-04-21T12:27:16.063Z,4688.00
2019-04-21T12:28:15.978Z,4692.00
2019-04-21T12:29:14.685Z,4700.00
2019-04-21T12:30:15.674Z,4708.00
2019-04-21T12:31:15.747Z,4720.00
2019-04-21T12:32:15.831Z,4728.00
2019-04-21T12:33:16.067Z,4732.00
2019-04-21T12:34:14.540Z,4740.00
2019-04-21T12:35:15.758Z,4744.00
2019-04-21T12:36:15.730Z,4748.00
2019-04-21T12:37:15.095Z,4752.00
2019-04-21T12:38:14.491Z,4752.00
2019-04-21T12:39:14.944Z,4752.00
2019-04-21T12:40:14.761Z,4752.00
2019-04-21T12:41:14.931Z,4756.00
2019-04-21T12:42:14.540Z,4756.00
2019-04-21T12:43:14.727Z,4752.00
2019-04-21T12:44:14.890Z,4752.00
2019-04-21T12:45:15.196Z,4752.00
2019-04-21T12:46:14.267Z,4752.00
2019-04-21T12:47:14.325Z,4752.00
2019-04-21T12:48:15.926Z,4752.00
2019-04-21T12:49:14.187Z,4748.00
2019-04-21T12:50:14.851Z,4748.00
2019-04-21T12:51:15.462Z,4748.00
2019-04-21T12:52:14.470Z,4752.00
2019-04-21T12:53:15.672Z,4756.00
2019-04-21T12:54:15.344Z,4756.00
2019-04-21T12:55:15.407Z,4764.00
2019-04-21T12:56:14.021Z,4772.00
2019-04-21T12:57:14.025Z,4780.00
2019-04-21T12:58:15.186Z,4784.00
2019-04-21T12:59:14.902Z,4792.00
2019-04-21T13:00:15.037Z,4796.00
2019-04-21T13:01:14.710Z,4796.00
2019-04-21T13:02:13.910Z,4800.00
2019-04-21T13:03:14.195Z,4804.00
2019-04-21T13:04:13.851Z,4812.00
2019-04-21T13:05:13.812Z,4808.00
2019-04-21T13:06:13.929Z,4812.00
2019-04-21T13:07:13.798Z,4816.00
2019-04-21T13:08:13.745Z,4812.00
2019-04-21T13:09:17.972Z,4824.00
2019-04-21T13:10:13.697Z,4832.00
2019-04-21T13:11:14.929Z,4840.00
2019-04-21T13:12:13.676Z,4848.00
2019-04-21T13:13:14.363Z,4848.00
2019-04-21T13:14:13.733Z,4856.00
2019-04-21T13:15:13.723Z,4860.00
2019-04-21T13:16:13.785Z,4868.00
2019-04-21T13:17:13.553Z,4868.00
2019-04-21T13:18:14.375Z,4876.00
2019-04-21T13:19:13.504Z,4888.00
2019-04-21T13:20:13.464Z,4892.00
2019-04-21T13:21:14.070Z,4896.00
2019-04-21T13:22:14.118Z,4908.00
2019-04-21T13:23:13.842Z,4912.00
2019-04-21T13:24:13.760Z,4916.00
2019-04-21T13:25:14.089Z,4928.00
2019-04-21T13:26:13.333Z,4932.00
2019-04-21T13:27:13.356Z,4936.00
2019-04-21T13:28:14.552Z,4944.00
2019-04-21T13:29:14.557Z,4952.00
2019-04-21T13:30:14.550Z,4968.00
2019-04-21T13:31:14.046Z,4984.00
2019-04-21T13:32:14.390Z,4996.00